Odessa, Florida
Current Conditions -  °F | °C
As of 6:53 PM on Monday 20 Oct 2014 (Local Time) from KTPA Reporting Station
Overcast Overcast  
Wind Chill: 78°   Ceiling: 25000
Heat Index: 80°   Visibility: 10mi
Dew Point: 63°   Wind: 5mph
Humidity: 60%   Direction: NA
Pressure: 29.95"   Gusts: NA
Location:  28.19°N, 82.59°W
Report Text: KTPA 202253Z VRB04KT 10SM SCT055 SCT110 OVC250 26/17 A2995 RMK AO2 SLP141 T02560172
Loading
Personal Weather Stations






























Interactive Weather Map
Tropical Storm Tracking
New forecast layout! Learn more

10-Day Weather Forecast

Advertisements
Track Severe Weather on mobile